sensor_id;sensor_type;location;lat;lon;timestamp;pressure;altitude;pressure_sealevel;temperature;humidity
14293;BME280;62290;59.420;17.842;2023-07-30T00:01:15;99955.19;;;25.70;38.84
14293;BME280;62290;59.420;17.842;2023-07-30T00:03:43;99949.13;;;25.68;38.35
14293;BME280;62290;59.420;17.842;2023-07-30T00:06:11;99947.44;;;25.67;38.75
14293;BME280;62290;59.420;17.842;2023-07-30T00:08:40;99944.72;;;25.67;38.41
14293;BME280;62290;59.420;17.842;2023-07-30T00:11:08;99942.19;;;25.65;38.82
14293;BME280;62290;59.420;17.842;2023-07-30T00:13:36;99936.97;;;25.64;38.74
14293;BME280;62290;59.420;17.842;2023-07-30T00:16:04;99940.66;;;25.63;38.71
14293;BME280;62290;59.420;17.842;2023-07-30T00:18:33;99945.25;;;25.62;38.35
14293;BME280;62290;59.420;17.842;2023-07-30T00:21:00;99939.31;;;25.59;38.77
14293;BME280;62290;59.420;17.842;2023-07-30T00:23:28;99935.78;;;25.58;38.35
14293;BME280;62290;59.420;17.842;2023-07-30T00:25:58;99934.09;;;25.57;38.42
14293;BME280;62290;59.420;17.842;2023-07-30T00:28:26;99933.06;;;25.58;38.54
14293;BME280;62290;59.420;17.842;2023-07-30T00:30:54;99933.06;;;25.58;39.03
14293;BME280;62290;59.420;17.842;2023-07-30T00:33:22;99934.09;;;25.57;38.96
14293;BME280;62290;59.420;17.842;2023-07-30T00:35:51;99934.25;;;25.56;38.58
14293;BME280;62290;59.420;17.842;2023-07-30T00:38:19;99930.88;;;25.54;38.58
14293;BME280;62290;59.420;17.842;2023-07-30T00:40:47;99915.81;;;25.43;38.76
14293;BME280;62290;59.420;17.842;2023-07-30T00:43:16;99934.56;;;25.53;39.12
14293;BME280;62290;59.420;17.842;2023-07-30T00:45:44;99928.34;;;25.52;39.04
14293;BME280;62290;59.420;17.842;2023-07-30T00:48:14;99929.50;;;25.50;39.08
14293;BME280;62290;59.420;17.842;2023-07-30T00:50:43;99938.31;;;25.52;38.85
14293;BME280;62290;59.420;17.842;2023-07-30T00:53:14;99937.28;;;25.53;38.96
14293;BME280;62290;59.420;17.842;2023-07-30T00:55:42;99933.91;;;25.51;39.25
14293;BME280;62290;59.420;17.842;2023-07-30T00:58:11;99936.78;;;25.49;39.27
14293;BME280;62290;59.420;17.842;2023-07-30T01:00:41;99928.44;;;25.43;39.21
14293;BME280;62290;59.420;17.842;2023-07-30T01:03:09;99926.13;;;25.48;39.16
14293;BME280;62290;59.420;17.842;2023-07-30T01:05:38;99926.13;;;25.48;38.89
14293;BME280;62290;59.420;17.842;2023-07-30T01:08:06;99920.72;;;25.48;38.81
14293;BME280;62290;59.420;17.842;2023-07-30T01:10:35;99923.63;;;25.46;38.97
14293;BME280;62290;59.420;17.842;2023-07-30T01:13:06;99921.03;;;25.45;39.43
14293;BME280;62290;59.420;17.842;2023-07-30T01:15:36;99928.16;;;25.46;39.07
14293;BME280;62290;59.420;17.842;2023-07-30T01:18:06;99916.31;;;25.39;39.31
14293;BME280;62290;59.420;17.842;2023-07-30T01:20:34;99923.06;;;25.43;39.47
14293;BME280;62290;59.420;17.842;2023-07-30T01:23:04;99926.59;;;25.43;39.06
14293;BME280;62290;59.420;17.842;2023-07-30T01:25:35;99924.09;;;25.42;39.40
14293;BME280;62290;59.420;17.842;2023-07-30T01:28:05;99927.09;;;25.39;39.22
14293;BME280;62290;59.420;17.842;2023-07-30T01:30:39;99927.09;;;25.39;39.07
14293;BME280;62290;59.420;17.842;2023-07-30T01:33:10;99927.41;;;25.36;39.13
14293;BME280;62290;59.420;17.842;2023-07-30T01:35:41;99920.19;;;25.36;39.48
14293;BME280;62290;59.420;17.842;2023-07-30T01:38:12;99924.06;;;25.34;39.12
14293;BME280;62290;59.420;17.842;2023-07-30T01:40:41;99925.22;;;25.31;39.58
14293;BME280;62290;59.420;17.842;2023-07-30T01:43:10;99913.59;;;25.31;39.14
14293;BME280;62290;59.420;17.842;2023-07-30T01:45:38;99918.13;;;25.30;39.07
14293;BME280;62290;59.420;17.842;2023-07-30T01:48:07;99910.03;;;25.30;39.58
14293;BME280;62290;59.420;17.842;2023-07-30T01:50:35;99915.63;;;25.29;39.58
14293;BME280;62290;59.420;17.842;2023-07-30T01:53:03;99918.44;;;25.27;39.44
14293;BME280;62290;59.420;17.842;2023-07-30T01:55:33;99917.59;;;25.27;39.41
14293;BME280;62290;59.420;17.842;2023-07-30T01:58:01;99918.63;;;25.26;39.37
14293;BME280;62290;59.420;17.842;2023-07-30T02:00:29;99923.19;;;25.25;39.86
14293;BME280;62290;59.420;17.842;2023-07-30T02:03:03;99910.88;;;25.23;39.69
14293;BME280;62290;59.420;17.842;2023-07-30T02:05:31;99912.72;;;25.22;39.99
14293;BME280;62290;59.420;17.842;2023-07-30T02:07:59;99925.19;;;25.23;39.87
14293;BME280;62290;59.420;17.842;2023-07-30T02:10:27;99925.34;;;25.22;39.70
14293;BME280;62290;59.420;17.842;2023-07-30T02:12:57;99927.91;;;25.23;39.94
14293;BME280;62290;59.420;17.842;2023-07-30T02:15:25;99921.81;;;25.21;39.68
14293;BME280;62290;59.420;17.842;2023-07-30T02:17:53;99917.44;;;25.20;39.90
14293;BME280;62290;59.420;17.842;2023-07-30T02:20:21;99924.66;;;25.20;39.79
14293;BME280;62290;59.420;17.842;2023-07-30T02:22:49;99914.88;;;25.18;39.79
14293;BME280;62290;59.420;17.842;2023-07-30T02:25:17;99914.88;;;25.18;39.76
14293;BME280;62290;59.420;17.842;2023-07-30T02:27:45;99921.28;;;25.17;40.15
14293;BME280;62290;59.420;17.842;2023-07-30T02:30:15;99920.28;;;25.18;39.79
14293;BME280;62290;59.420;17.842;2023-07-30T02:32:43;99913.34;;;25.16;39.77
14293;BME280;62290;59.420;17.842;2023-07-30T02:35:11;99914.38;;;25.15;40.03
14293;BME280;62290;59.420;17.842;2023-07-30T02:37:39;99913.53;;;25.14;40.31
14293;BME280;62290;59.420;17.842;2023-07-30T02:40:08;99909.97;;;25.14;40.21
14293;BME280;62290;59.420;17.842;2023-07-30T02:42:36;99919.25;;;25.11;40.01
14293;BME280;62290;59.420;17.842;2023-07-30T02:45:05;99871.28;;;24.81;40.44
14293;BME280;62290;59.420;17.842;2023-07-30T02:47:35;99916.53;;;25.11;40.14
14293;BME280;62290;59.420;17.842;2023-07-30T02:50:04;99915.88;;;25.09;40.24
14293;BME280;62290;59.420;17.842;2023-07-30T02:52:32;99917.72;;;25.09;40.08
14293;BME280;62290;59.420;17.842;2023-07-30T02:55:00;99917.91;;;25.07;40.21
14293;BME280;62290;59.420;17.842;2023-07-30T02:57:28;99919.72;;;25.07;40.38
14293;BME280;62290;59.420;17.842;2023-07-30T02:59:56;99912.50;;;25.07;40.49
14293;BME280;62290;59.420;17.842;2023-07-30T03:02:25;99912.66;;;25.06;40.26
14293;BME280;62290;59.420;17.842;2023-07-30T03:04:54;99911.97;;;25.04;40.33
14293;BME280;62290;59.420;17.842;2023-07-30T03:07:24;99908.28;;;25.05;40.20
14293;BME280;62290;59.420;17.842;2023-07-30T03:09:52;99906.44;;;25.05;40.35
14293;BME280;62290;59.420;17.842;2023-07-30T03:12:20;99906.75;;;25.02;40.27
14293;BME280;62290;59.420;17.842;2023-07-30T03:14:48;99913.66;;;25.05;40.83
14293;BME280;62290;59.420;17.842;2023-07-30T03:17:16;99912.81;;;25.04;40.65
14293;BME280;62290;59.420;17.842;2023-07-30T03:19:44;99916.50;;;25.03;40.78
14293;BME280;62290;59.420;17.842;2023-07-30T03:22:13;99913.66;;;25.05;40.52
14293;BME280;62290;59.420;17.842;2023-07-30T03:24:41;99913.81;;;25.03;40.77
14293;BME280;62290;59.420;17.842;2023-07-30T03:27:09;99920.91;;;25.04;40.98
14293;BME280;62290;59.420;17.842;2023-07-30T03:29:37;99926.28;;;25.04;40.59
14293;BME280;62290;59.420;17.842;2023-07-30T03:32:06;99916.50;;;25.03;40.88
14293;BME280;62290;59.420;17.842;2023-07-30T03:34:34;99911.28;;;25.02;40.55
14293;BME280;62290;59.420;17.842;2023-07-30T03:37:02;99912.81;;;25.04;40.84
14293;BME280;62290;59.420;17.842;2023-07-30T03:39:32;99912.81;;;25.04;40.75
14293;BME280;62290;59.420;17.842;2023-07-30T03:42:00;99912.81;;;25.04;40.67
14293;BME280;62290;59.420;17.842;2023-07-30T03:44:28;99911.13;;;25.03;40.73
14293;BME280;62290;59.420;17.842;2023-07-30T03:46:56;99911.97;;;25.04;40.87
14293;BME280;62290;59.420;17.842;2023-07-30T03:49:24;99913.81;;;25.03;41.12
14293;BME280;62290;59.420;17.842;2023-07-30T03:51:52;99905.91;;;25.02;40.91
14293;BME280;62290;59.420;17.842;2023-07-30T03:54:36;99912.16;;;25.02;41.43
14293;BME280;62290;59.420;17.842;2023-07-30T03:57:05;99927.47;;;25.02;41.27
14293;BME280;62290;59.420;17.842;2023-07-30T03:59:33;99914.84;;;25.02;41.34
14293;BME280;62290;59.420;17.842;2023-07-30T04:02:01;99925.75;;;25.01;41.22
14293;BME280;62290;59.420;17.842;2023-07-30T04:04:29;99926.63;;;25.01;41.50
14293;BME280;62290;59.420;17.842;2023-07-30T04:06:59;99923.91;;;25.01;41.23
14293;BME280;62290;59.420;17.842;2023-07-30T04:09:27;99917.53;;;25.02;41.67
14293;BME280;62290;59.420;17.842;2023-07-30T04:11:56;99924.78;;;25.02;41.63
14293;BME280;62290;59.420;17.842;2023-07-30T04:14:24;99927.47;;;25.02;41.54
14293;BME280;62290;59.420;17.842;2023-07-30T04:16:52;99930.00;;;25.03;41.81
14293;BME280;62290;59.420;17.842;2023-07-30T04:19:20;99872.69;;;24.68;41.68
14293;BME280;62290;59.420;17.842;2023-07-30T04:21:48;99933.38;;;25.05;41.39
14293;BME280;62290;59.420;17.842;2023-07-30T04:24:17;99937.75;;;25.06;41.82
14293;BME280;62290;59.420;17.842;2023-07-30T04:26:45;99934.91;;;25.08;41.84
14293;BME280;62290;59.420;17.842;2023-07-30T04:29:15;99939.13;;;25.10;41.92
14293;BME280;62290;59.420;17.842;2023-07-30T04:31:43;99936.44;;;25.10;41.84
14293;BME280;62290;59.420;17.842;2023-07-30T04:34:11;99929.03;;;25.12;41.92
14293;BME280;62290;59.420;17.842;2023-07-30T04:36:40;99936.09;;;25.13;41.60
14293;BME280;62290;59.420;17.842;2023-07-30T04:39:08;99926.66;;;25.09;41.61
14293;BME280;62290;59.420;17.842;2023-07-30T04:41:37;99936.81;;;25.15;41.90
14293;BME280;62290;59.420;17.842;2023-07-30T04:44:05;99927.69;;;25.16;41.53
14293;BME280;62290;59.420;17.842;2023-07-30T04:46:34;99930.56;;;25.15;41.71
14293;BME280;62290;59.420;17.842;2023-07-30T04:49:03;99934.78;;;25.17;41.65
14293;BME280;62290;59.420;17.842;2023-07-30T04:51:31;99928.34;;;25.18;41.57
14293;BME280;62290;59.420;17.842;2023-07-30T04:53:59;99928.34;;;25.18;41.92
14293;BME280;62290;59.420;17.842;2023-07-30T04:56:27;99927.69;;;25.16;42.24
14293;BME280;62290;59.420;17.842;2023-07-30T04:58:56;99922.97;;;25.18;42.16
14293;BME280;62290;59.420;17.842;2023-07-30T05:01:24;99916.03;;;25.16;42.16
14293;BME280;62290;59.420;17.842;2023-07-30T05:03:54;99931.75;;;25.21;42.00
14293;BME280;62290;59.420;17.842;2023-07-30T05:06:22;99902.03;;;25.04;42.17
14293;BME280;62290;59.420;17.842;2023-07-30T05:08:50;99931.75;;;25.21;42.48
14293;BME280;62290;59.420;17.842;2023-07-30T05:11:19;99941.53;;;25.22;42.06
14293;BME280;62290;59.420;17.842;2023-07-30T05:13:47;99934.28;;;25.22;42.19
14293;BME280;62290;59.420;17.842;2023-07-30T05:16:16;99934.28;;;25.22;42.00
14293;BME280;62290;59.420;17.842;2023-07-30T05:18:44;99930.41;;;25.25;42.31
14293;BME280;62290;59.420;17.842;2023-07-30T05:21:13;99938.19;;;25.28;42.18
14293;BME280;62290;59.420;17.842;2023-07-30T05:23:42;99934.50;;;25.29;42.49
14293;BME280;62290;59.420;17.842;2023-07-30T05:26:10;99935.50;;;25.28;42.50
14293;BME280;62290;59.420;17.842;2023-07-30T05:28:38;99925.03;;;25.25;42.60
14293;BME280;62290;59.420;17.842;2023-07-30T05:31:06;99932.63;;;25.29;42.43
14293;BME280;62290;59.420;17.842;2023-07-30T05:33:34;99932.28;;;25.32;42.77
14293;BME280;62290;59.420;17.842;2023-07-30T05:36:02;99933.13;;;25.33;42.41
14293;BME280;62290;59.420;17.842;2023-07-30T05:38:31;99934.13;;;25.32;42.53
14293;BME280;62290;59.420;17.842;2023-07-30T05:40:59;99932.28;;;25.32;43.00
14293;BME280;62290;59.420;17.842;2023-07-30T05:43:27;99925.22;;;25.31;43.18
14293;BME280;62290;59.420;17.842;2023-07-30T05:45:55;99933.13;;;25.33;42.84
14293;BME280;62290;59.420;17.842;2023-07-30T05:48:24;99926.91;;;25.32;42.83
14293;BME280;62290;59.420;17.842;2023-07-30T05:50:52;99919.66;;;25.33;43.21
14293;BME280;62290;59.420;17.842;2023-07-30T05:53:20;99914.44;;;25.31;43.69
14293;BME280;62290;59.420;17.842;2023-07-30T05:55:49;99918.81;;;25.32;44.00
14293;BME280;62290;59.420;17.842;2023-07-30T05:58:17;99917.94;;;25.32;43.91
14293;BME280;62290;59.420;17.842;2023-07-30T06:00:45;99917.13;;;25.31;44.44
14293;BME280;62290;59.420;17.842;2023-07-30T06:03:13;99914.59;;;25.30;44.19
14293;BME280;62290;59.420;17.842;2023-07-30T06:05:42;99910.22;;;25.29;44.22
14293;BME280;62290;59.420;17.842;2023-07-30T06:08:10;99907.53;;;25.29;44.19
14293;BME280;62290;59.420;17.842;2023-07-30T06:10:38;99901.44;;;25.27;44.55
14293;BME280;62290;59.420;17.842;2023-07-30T06:13:08;99909.19;;;25.30;44.73
14293;BME280;62290;59.420;17.842;2023-07-30T06:15:36;99912.06;;;25.28;44.44
14293;BME280;62290;59.420;17.842;2023-07-30T06:18:05;99919.13;;;25.29;44.57
14293;BME280;62290;59.420;17.842;2023-07-30T06:20:33;99910.22;;;25.29;44.91
14293;BME280;62290;59.420;17.842;2023-07-30T06:23:01;99910.22;;;25.29;45.41
14293;BME280;62290;59.420;17.842;2023-07-30T06:25:30;99918.44;;;25.27;45.13
14293;BME280;62290;59.420;17.842;2023-07-30T06:27:58;99910.38;;;25.27;45.21
14293;BME280;62290;59.420;17.842;2023-07-30T06:30:28;99905.16;;;25.26;45.27
14293;BME280;62290;59.420;17.842;2023-07-30T06:32:56;99907.84;;;25.26;45.36
14293;BME280;62290;59.420;17.842;2023-07-30T06:35:24;99897.19;;;25.24;45.35
14293;BME280;62290;59.420;17.842;2023-07-30T06:37:52;99892.00;;;25.23;45.50
14293;BME280;62290;59.420;17.842;2023-07-30T06:40:20;99892.97;;;25.22;45.45
14293;BME280;62290;59.420;17.842;2023-07-30T06:42:48;99891.13;;;25.22;45.74
14293;BME280;62290;59.420;17.842;2023-07-30T06:45:16;99889.47;;;25.21;45.45
14293;BME280;62290;59.420;17.842;2023-07-30T06:47:45;99893.84;;;25.22;45.71
14293;BME280;62290;59.420;17.842;2023-07-30T06:50:14;99893.84;;;25.22;45.30
14293;BME280;62290;59.420;17.842;2023-07-30T06:52:42;99889.47;;;25.21;45.89
14293;BME280;62290;59.420;17.842;2023-07-30T06:55:10;99892.16;;;25.21;45.69
14293;BME280;62290;59.420;17.842;2023-07-30T06:57:38;99896.72;;;25.21;45.45
14293;BME280;62290;59.420;17.842;2023-07-30T07:00:07;99900.25;;;25.21;45.33
14293;BME280;62290;59.420;17.842;2023-07-30T07:02:35;99900.25;;;25.21;45.43
14293;BME280;62290;59.420;17.842;2023-07-30T07:05:06;99900.06;;;25.23;45.60
14293;BME280;62290;59.420;17.842;2023-07-30T07:07:34;99905.47;;;25.23;45.54
14293;BME280;62290;59.420;17.842;2023-07-30T07:10:02;99892.16;;;25.21;45.93
14293;BME280;62290;59.420;17.842;2023-07-30T07:12:30;99907.84;;;25.26;45.64
14293;BME280;62290;59.420;17.842;2023-07-30T07:14:58;99889.97;;;25.25;45.83
14293;BME280;62290;59.420;17.842;2023-07-30T07:17:28;99901.28;;;25.28;45.96
14293;BME280;62290;59.420;17.842;2023-07-30T07:19:56;99900.25;;;25.29;45.91
14293;BME280;62290;59.420;17.842;2023-07-30T07:22:26;99903.47;;;25.33;46.26
14293;BME280;62290;59.420;17.842;2023-07-30T07:24:54;99907.69;;;25.35;45.83
14293;BME280;62290;59.420;17.842;2023-07-30T07:27:22;99890.66;;;25.35;46.26
14293;BME280;62290;59.420;17.842;2023-07-30T07:29:50;99897.09;;;25.42;46.04
14293;BME280;62290;59.420;17.842;2023-07-30T07:32:19;99897.47;;;25.47;45.79
14293;BME280;62290;59.420;17.842;2023-07-30T07:34:47;99903.06;;;25.53;45.77
14293;BME280;62290;59.420;17.842;2023-07-30T07:37:15;99903.91;;;25.62;45.37
14293;BME280;62290;59.420;17.842;2023-07-30T07:39:46;99915.91;;;25.67;45.84
14293;BME280;62290;59.420;17.842;2023-07-30T07:42:14;99912.88;;;25.70;45.85
14293;BME280;62290;59.420;17.842;2023-07-30T07:44:42;99913.22;;;25.75;45.58
14293;BME280;62290;59.420;17.842;2023-07-30T07:47:13;99914.75;;;25.78;45.39
14293;BME280;62290;59.420;17.842;2023-07-30T07:49:41;99906.31;;;25.81;45.61
14293;BME280;62290;59.420;17.842;2023-07-30T07:52:10;99907.66;;;25.85;45.20
14293;BME280;62290;59.420;17.842;2023-07-30T07:54:38;99914.75;;;25.86;45.72
14293;BME280;62290;59.420;17.842;2023-07-30T07:57:10;99908.16;;;25.89;45.64
14293;BME280;62290;59.420;17.842;2023-07-30T07:59:38;99913.56;;;25.89;45.20
14293;BME280;62290;59.420;17.842;2023-07-30T08:02:06;99911.69;;;25.89;45.13
14293;BME280;62290;59.420;17.842;2023-07-30T08:04:34;99908.16;;;25.89;45.30
14293;BME280;62290;59.420;17.842;2023-07-30T08:07:02;99910.88;;;25.89;45.55
14293;BME280;62290;59.420;17.842;2023-07-30T08:09:31;99902.78;;;25.89;45.53
14293;BME280;62290;59.420;17.842;2023-07-30T08:11:59;99906.66;;;25.86;45.32
14293;BME280;62290;59.420;17.842;2023-07-30T08:14:29;99906.47;;;25.88;45.66
14293;BME280;62290;59.420;17.842;2023-07-30T08:16:58;99902.25;;;25.85;45.30
14293;BME280;62290;59.420;17.842;2023-07-30T08:19:26;99899.03;;;25.82;45.13
14293;BME280;62290;59.420;17.842;2023-07-30T08:21:54;99892.44;;;25.84;45.04
14293;BME280;62290;59.420;17.842;2023-07-30T08:24:23;99893.31;;;25.85;44.92
14293;BME280;62290;59.420;17.842;2023-07-30T08:26:51;99887.41;;;25.81;44.93
14293;BME280;62290;59.420;17.842;2023-07-30T08:29:19;99886.91;;;25.86;45.26
14293;BME280;62290;59.420;17.842;2023-07-30T08:31:48;99875.91;;;25.79;45.10
14293;BME280;62290;59.420;17.842;2023-07-30T08:34:16;99883.38;;;25.93;44.77
14293;BME280;62290;59.420;17.842;2023-07-30T08:36:44;99875.78;;;25.97;44.96
14293;BME280;62290;59.420;17.842;2023-07-30T08:39:12;99881.66;;;26.00;44.91
14293;BME280;62290;59.420;17.842;2023-07-30T08:41:41;99885.72;;;26.04;44.25
14293;BME280;62290;59.420;17.842;2023-07-30T08:44:09;99880.66;;;26.09;44.49
14293;BME280;62290;59.420;17.842;2023-07-30T08:46:37;99882.34;;;26.10;44.05
14293;BME280;62290;59.420;17.842;2023-07-30T08:49:07;99867.97;;;26.10;43.57
14293;BME280;62290;59.420;17.842;2023-07-30T08:51:36;99876.63;;;26.13;43.56
14293;BME280;62290;59.420;17.842;2023-07-30T08:54:06;99867.34;;;26.16;43.72
14293;BME280;62290;59.420;17.842;2023-07-30T08:56:34;99868.84;;;26.18;43.37
14293;BME280;62290;59.420;17.842;2023-07-30T08:59:03;99872.22;;;26.20;43.00
14293;BME280;62290;59.420;17.842;2023-07-30T09:01:36;99868.72;;;26.20;43.02
14293;BME280;62290;59.420;17.842;2023-07-30T09:04:07;99865.50;;;26.16;42.89
14293;BME280;62290;59.420;17.842;2023-07-30T09:06:36;99876.28;;;26.24;42.71
14293;BME280;62290;59.420;17.842;2023-07-30T09:09:05;99875.09;;;26.27;43.35
14293;BME280;62290;59.420;17.842;2023-07-30T09:11:35;99878.47;;;26.29;43.31
14293;BME280;62290;59.420;17.842;2023-07-30T09:14:06;99875.44;;;26.32;43.11
14293;BME280;62290;59.420;17.842;2023-07-30T09:16:34;99878.13;;;26.32;43.14
14293;BME280;62290;59.420;17.842;2023-07-30T09:19:02;99882.53;;;26.33;42.82
14293;BME280;62290;59.420;17.842;2023-07-30T09:21:32;99878.97;;;26.32;42.73
14293;BME280;62290;59.420;17.842;2023-07-30T09:24:02;99886.03;;;26.33;42.66
14293;BME280;62290;59.420;17.842;2023-07-30T09:26:43;99882.34;;;26.34;42.98
14293;BME280;62290;59.420;17.842;2023-07-30T09:29:11;99881.69;;;26.32;43.01
14293;BME280;62290;59.420;17.842;2023-07-30T09:31:45;99894.00;;;26.35;42.78
14293;BME280;62290;59.420;17.842;2023-07-30T09:34:18;99886.91;;;26.34;42.69
14293;BME280;62290;59.420;17.842;2023-07-30T09:36:50;99892.16;;;26.35;42.88
14293;BME280;62290;59.420;17.842;2023-07-30T09:39:20;99885.72;;;26.36;42.50
14293;BME280;62290;59.420;17.842;2023-07-30T09:41:49;99889.91;;;26.39;42.57
14293;BME280;62290;59.420;17.842;2023-07-30T09:44:18;99889.06;;;26.38;42.69
14293;BME280;62290;59.420;17.842;2023-07-30T09:46:48;99889.78;;;26.41;42.87
14293;BME280;62290;59.420;17.842;2023-07-30T09:49:16;99880.31;;;26.36;42.58
14293;BME280;62290;59.420;17.842;2023-07-30T09:51:44;99885.56;;;26.38;42.83
14293;BME280;62290;59.420;17.842;2023-07-30T09:54:14;99883.34;;;26.42;42.52
14293;BME280;62290;59.420;17.842;2023-07-30T09:56:42;99888.75;;;26.42;42.40
14293;BME280;62290;59.420;17.842;2023-07-30T09:59:10;99883.34;;;26.42;42.81
14293;BME280;62290;59.420;17.842;2023-07-30T10:01:42;99889.59;;;26.42;42.90
14293;BME280;62290;59.420;17.842;2023-07-30T10:04:12;99874.38;;;26.41;42.65
14293;BME280;62290;59.420;17.842;2023-07-30T10:06:52;99877.94;;;26.42;42.90
14293;BME280;62290;59.420;17.842;2023-07-30T10:09:26;99859.72;;;26.35;42.66
14293;BME280;62290;59.420;17.842;2023-07-30T10:11:58;99879.97;;;26.40;42.73
14293;BME280;62290;59.420;17.842;2023-07-30T10:14:27;99880.81;;;26.40;42.46
14293;BME280;62290;59.420;17.842;2023-07-30T10:16:59;99878.97;;;26.41;42.39
14293;BME280;62290;59.420;17.842;2023-07-30T10:19:28;99878.13;;;26.40;42.89
14293;BME280;62290;59.420;17.842;2023-07-30T10:22:22;99887.06;;;26.41;42.66
14293;BME280;62290;59.420;17.842;2023-07-30T10:24:59;99885.56;;;26.38;42.83
14293;BME280;62290;59.420;17.842;2023-07-30T10:27:35;99887.88;;;26.41;42.92
14293;BME280;62290;59.420;17.842;2023-07-30T10:30:12;99887.88;;;26.41;42.99
14293;BME280;62290;59.420;17.842;2023-07-30T10:32:41;99885.19;;;26.41;43.05
14293;BME280;62290;59.420;17.842;2023-07-30T10:35:37;99890.59;;;26.41;43.44
14293;BME280;62290;59.420;17.842;2023-07-30T10:38:16;99885.19;;;26.41;43.10
14293;BME280;62290;59.420;17.842;2023-07-30T10:41:04;99877.94;;;26.42;43.53
14293;BME280;62290;59.420;17.842;2023-07-30T10:43:35;99884.19;;;26.42;43.65
14293;BME280;62290;59.420;17.842;2023-07-30T10:46:04;99880.63;;;26.42;43.43
14293;BME280;62290;59.420;17.842;2023-07-30T10:48:34;99883.19;;;26.43;43.71
14293;BME280;62290;59.420;17.842;2023-07-30T10:51:04;99881.47;;;26.42;43.39
14293;BME280;62290;59.420;17.842;2023-07-30T10:53:33;99885.88;;;26.43;43.60
14293;BME280;62290;59.420;17.842;2023-07-30T10:56:04;99865.94;;;26.36;43.74
14293;BME280;62290;59.420;17.842;2023-07-30T10:58:34;99879.44;;;26.44;43.24
14293;BME280;62290;59.420;17.842;2023-07-30T11:01:03;99852.66;;;26.26;43.44
14293;BME280;62290;59.420;17.842;2023-07-30T11:03:32;99885.88;;;26.43;43.40
14293;BME280;62290;59.420;17.842;2023-07-30T11:06:01;99881.31;;;26.44;43.79
14293;BME280;62290;59.420;17.842;2023-07-30T11:08:32;99883.00;;;26.45;43.72
14293;BME280;62290;59.420;17.842;2023-07-30T11:11:01;99887.53;;;26.44;43.41
14293;BME280;62290;59.420;17.842;2023-07-30T11:13:35;99888.41;;;26.45;43.39
14293;BME280;62290;59.420;17.842;2023-07-30T11:16:04;99887.53;;;26.44;43.32
14293;BME280;62290;59.420;17.842;2023-07-30T11:18:33;99881.31;;;26.44;43.25
14293;BME280;62290;59.420;17.842;2023-07-30T11:21:03;99890.25;;;26.44;43.50
14293;BME280;62290;59.420;17.842;2023-07-30T11:23:31;99895.00;;;26.42;43.57
14293;BME280;62290;59.420;17.842;2023-07-30T11:26:00;99919.16;;;26.44;43.50
14293;BME280;62290;59.420;17.842;2023-07-30T11:28:30;99912.91;;;26.43;43.46
14293;BME280;62290;59.420;17.842;2023-07-30T11:31:05;99909.34;;;26.43;43.65
14293;BME280;62290;59.420;17.842;2023-07-30T11:33:35;99923.00;;;26.41;43.62
14293;BME280;62290;59.420;17.842;2023-07-30T11:36:04;99921.50;;;26.38;43.57
14293;BME280;62290;59.420;17.842;2023-07-30T11:38:34;99927.94;;;26.38;43.61
14293;BME280;62290;59.420;17.842;2023-07-30T11:41:03;99936.88;;;26.38;43.57
14293;BME280;62290;59.420;17.842;2023-07-30T11:43:35;99938.88;;;26.36;43.64
14293;BME280;62290;59.420;17.842;2023-07-30T11:46:12;99940.41;;;26.38;43.82
14293;BME280;62290;59.420;17.842;2023-07-30T11:48:42;99931.97;;;26.33;43.76
14293;BME280;62290;59.420;17.842;2023-07-30T11:51:21;99946.16;;;26.35;43.15
14293;BME280;62290;59.420;17.842;2023-07-30T11:53:51;99944.66;;;26.33;43.31
14293;BME280;62290;59.420;17.842;2023-07-30T11:56:21;99947.34;;;26.33;43.27
14293;BME280;62290;59.420;17.842;2023-07-30T11:58:54;99940.25;;;26.32;42.95
14293;BME280;62290;59.420;17.842;2023-07-30T12:01:24;99925.06;;;26.31;43.25
14293;BME280;62290;59.420;17.842;2023-07-30T12:03:56;99942.28;;;26.30;43.23
14293;BME280;62290;59.420;17.842;2023-07-30T12:06:38;99938.06;;;26.27;43.13
14293;BME280;62290;59.420;17.842;2023-07-30T12:09:10;99932.66;;;26.27;42.84
14293;BME280;62290;59.420;17.842;2023-07-30T12:11:49;99922.00;;;26.26;43.21
14293;BME280;62290;59.420;17.842;2023-07-30T12:14:22;99948.19;;;26.25;43.00
14293;BME280;62290;59.420;17.842;2023-07-30T12:16:52;99929.63;;;26.14;42.84
14293;BME280;62290;59.420;17.842;2023-07-30T12:19:20;99947.84;;;26.20;43.08
14293;BME280;62290;59.420;17.842;2023-07-30T12:21:48;99940.78;;;26.19;43.27
14293;BME280;62290;59.420;17.842;2023-07-30T12:24:16;99941.28;;;26.15;43.70
14293;BME280;62290;59.420;17.842;2023-07-30T12:26:45;99958.31;;;26.15;43.98
14293;BME280;62290;59.420;17.842;2023-07-30T12:29:13;99940.72;;;26.11;44.29
14293;BME280;62290;59.420;17.842;2023-07-30T12:31:42;99935.50;;;26.10;44.48
14293;BME280;62290;59.420;17.842;2023-07-30T12:34:12;99935.50;;;26.10;44.69
14293;BME280;62290;59.420;17.842;2023-07-30T12:36:40;99926.91;;;26.06;45.12
14293;BME280;62290;59.420;17.842;2023-07-30T12:39:08;99933.47;;;26.04;45.35
14293;BME280;62290;59.420;17.842;2023-07-30T12:41:37;99938.03;;;26.03;45.28
14293;BME280;62290;59.420;17.842;2023-07-30T12:44:05;99945.47;;;26.01;45.59
14293;BME280;62290;59.420;17.842;2023-07-30T12:46:33;99951.88;;;26.00;45.95
14293;BME280;62290;59.420;17.842;2023-07-30T12:49:03;99968.06;;;26.00;46.35
14293;BME280;62290;59.420;17.842;2023-07-30T12:51:32;99974.63;;;25.98;46.55
14293;BME280;62290;59.420;17.842;2023-07-30T12:54:00;99982.06;;;25.96;46.46
14293;BME280;62290;59.420;17.842;2023-07-30T12:56:29;99982.56;;;25.91;47.11
14293;BME280;62290;59.420;17.842;2023-07-30T12:58:57;99989.31;;;25.95;47.03
14293;BME280;62290;59.420;17.842;2023-07-30T13:01:25;99993.00;;;25.94;47.79